Time;durP1;ratioP1;P1;durP2;ratioP2;P2;SDS_P1;SDS_P2;PMS_P1;PMS_P2;Temp;Humidity;BMP_temperature;BMP_pressure;BME280_temperature;BME280_humidity;BME280_pressure;Samples;Min_cycle;Max_cycle;Signal;HPM_P1;HPM_P2
2023/08/10 00:27:44;;;;;;;0.28;0.28;;;;;;;18.57;60.19;99959.22;4297032;28;20141;-96
2023/08/10 00:30:10;;;;;;;0.00;0.00;;;;;;;18.37;60.18;99955.16;4277071;33;20101;-95
2023/08/10 00:32:36;;;;;;;0.22;0.22;;;;;;;18.27;60.18;99963.72;4279208;33;20105;-96
2023/08/10 00:35:02;;;;;;;0.00;0.00;;;;;;;18.14;60.17;99960.97;4288566;33;20091;-96
2023/08/10 00:37:28;;;;;;;0.00;0.00;;;;;;;18.26;60.18;99959.41;4255574;33;20081;-96
2023/08/10 00:39:53;;;;;;;0.32;0.32;;;;;;;18.26;60.18;99962.03;4266434;33;20153;-96
2023/08/10 00:42:20;;;;;;;0.22;0.22;;;;;;;18.30;60.17;99955.63;4256007;33;20101;-96
2023/08/10 00:44:46;;;;;;;0.00;0.00;;;;;;;18.15;60.16;99953.91;4266267;33;20077;-96
2023/08/10 01:20:51;;;;;;;0.00;0.00;;;;;;;17.73;60.15;99953.72;4724913;28;20163;-96
2023/08/10 01:23:41;;;;;;;0.00;0.00;;;;;;;17.70;60.15;99947.78;4292866;33;20080;-96
2023/08/10 01:26:36;;;;;;;0.10;0.10;;;;;;;17.63;60.15;99956.94;4289211;33;20081;-96
2023/08/10 01:29:18;;;;;;;0.30;0.10;;;;;;;17.47;60.14;99960.44;4289699;33;20196;-96
2023/08/10 01:32:08;;;;;;;0.00;0.00;;;;;;;17.63;60.14;99956.94;4291955;33;20125;-96
2023/08/10 02:05:41;;;;;;;0.20;0.20;;;;;;;17.33;60.12;99962.19;4646083;27;20808;-96
2023/08/10 02:08:09;;;;;;;0.00;0.00;;;;;;;17.12;60.11;99962.44;4298960;33;20109;-96
2023/08/10 02:10:40;;;;;;;0.37;0.17;;;;;;;17.33;60.13;99964.81;4287778;33;20065;-96
2023/08/10 02:13:11;;;;;;;3.97;2.28;;;;;;;17.15;60.12;99962.25;4288912;33;20088;-96
2023/08/10 02:15:41;;;;;;;0.37;0.37;;;;;;;17.06;60.10;99960.16;4275838;33;20100;-96
2023/08/10 02:18:13;;;;;;;0.00;0.00;;;;;;;17.04;60.11;99961.19;4287170;33;20781;-96
2023/08/10 03:54:57;;;;;;;0.00;0.00;;;;;;;16.90;60.10;99992.63;4310839;33;20086;-96
2023/08/10 04:16:42;;;;;;;0.10;0.10;;;;;;;16.96;60.10;100003.66;4439557;28;20426;-91
2023/08/10 04:19:10;;;;;;;0.00;0.00;;;;;;;16.93;60.09;100010.84;4308872;28;20076;-96
2023/08/10 04:27:00;;;;;;;0.00;0.00;;;;;;;17.15;60.12;100012.25;4866394;28;20087;-96
2023/08/10 04:34:36;;;;;;;0.22;0.22;;;;;;;17.29;60.12;100010.66;4337113;28;20194;-96
2023/08/10 04:37:02;;;;;;;0.20;0.20;;;;;;;17.09;60.11;100011.72;4285533;33;20104;-95
2023/08/10 04:39:27;;;;;;;0.00;0.00;;;;;;;17.17;60.12;100006.91;4293076;33;20096;-96
2023/08/10 04:41:53;;;;;;;0.30;0.30;;;;;;;17.43;60.12;100014.19;4292909;33;20113;-96
2023/08/10 04:44:18;;;;;;;0.00;0.00;;;;;;;17.45;60.12;100006.19;4289079;33;20108;-96
2023/08/10 04:46:44;;;;;;;9.40;2.12;;;;;;;17.70;60.14;100003.91;4269530;33;20104;-95
2023/08/10 04:49:09;;;;;;;0.30;0.30;;;;;;;17.79;60.15;100002.56;4289053;33;20361;-95
2023/08/10 04:51:34;;;;;;;0.30;0.20;;;;;;;17.88;60.16;99995.88;4292839;33;20128;-95
2023/08/10 04:54:01;;;;;;;0.22;0.13;;;;;;;17.95;60.15;100007.75;4289609;33;20151;-95
2023/08/10 04:56:26;;;;;;;0.98;0.28;;;;;;;17.88;60.16;100006.44;4295124;33;20175;-94
2023/08/10 04:58:51;;;;;;;0.45;0.45;;;;;;;17.88;60.15;100009.06;4282464;33;20148;-94
2023/08/10 05:01:18;;;;;;;0.00;0.00;;;;;;;17.96;60.15;100018.19;4294190;33;20176;-96
2023/08/10 05:03:43;;;;;;;0.15;0.15;;;;;;;18.20;60.17;100018.53;4294773;33;20142;-95
2023/08/10 05:06:09;;;;;;;0.00;0.00;;;;;;;18.25;60.18;100019.16;4273398;33;20304;-94
2023/08/10 05:08:34;;;;;;;0.00;0.00;;;;;;;18.29;60.17;100019.81;4287949;33;20136;-95
2023/08/10 05:11:00;;;;;;;0.00;0.00;;;;;;;18.26;60.18;100017.38;4282547;33;20182;-96
2023/08/10 05:13:25;;;;;;;0.10;0.10;;;;;;;18.31;60.17;100015.28;4297863;33;20139;-95
2023/08/10 05:15:51;;;;;;;0.00;0.00;;;;;;;18.58;60.19;100010.16;4286902;33;20116;-96
2023/08/10 05:18:20;;;;;;;0.28;0.22;;;;;;;18.77;60.21;100013.37;4294848;33;20120;-95
2023/08/10 05:20:45;;;;;;;0.30;0.30;;;;;;;18.77;60.19;100012.53;4285448;33;20128;-96
2023/08/10 05:23:11;;;;;;;1.12;0.35;;;;;;;18.81;60.20;100011.41;4287574;33;20155;-95
2023/08/10 05:25:36;;;;;;;0.05;0.05;;;;;;;18.68;60.19;100006.87;4294970;33;20088;-96
2023/08/10 05:28:02;;;;;;;0.20;0.17;;;;;;;18.73;60.20;100018.97;4294211;33;20120;-96
2023/08/10 05:30:27;;;;;;;0.85;0.85;;;;;;;18.81;60.20;100017.53;4294073;33;20156;-95
2023/08/10 05:32:53;;;;;;;2.67;0.70;;;;;;;19.01;60.22;100021.56;4294616;33;20144;-96
2023/08/10 05:35:18;;;;;;;0.00;0.00;;;;;;;19.06;60.21;100021.28;4286176;33;20123;-94
2023/08/10 05:37:44;;;;;;;0.15;0.15;;;;;;;18.98;60.21;100017.34;4276399;33;20145;-94
2023/08/10 05:40:11;;;;;;;0.10;0.10;;;;;;;18.94;60.21;100021.13;4305490;33;20391;-96
2023/08/10 05:42:37;;;;;;;0.05;0.05;;;;;;;18.86;60.20;100026.00;4284129;33;20072;-95
2023/08/10 05:45:03;;;;;;;0.10;0.10;;;;;;;18.86;60.20;100031.28;4284051;33;20849;-94
2023/08/10 05:47:29;;;;;;;0.62;0.62;;;;;;;18.82;60.20;100036.84;4276676;33;20101;-96
2023/08/10 05:49:54;;;;;;;0.00;0.00;;;;;;;18.86;60.20;100036.56;4295359;33;20109;-96
2023/08/10 05:52:20;;;;;;;0.20;0.20;;;;;;;19.05;60.21;100041.53;4279358;33;20096;-96
2023/08/10 05:54:45;;;;;;;0.13;0.13;;;;;;;19.11;60.22;100035.88;4287416;33;20135;-95
2023/08/10 05:57:11;;;;;;;0.00;0.00;;;;;;;19.14;60.21;100040.09;4291776;33;20144;-96
2023/08/10 05:59:36;;;;;;;0.13;0.13;;;;;;;19.37;60.22;100039.50;4296226;33;20390;-95
2023/08/10 06:02:02;;;;;;;0.25;0.25;;;;;;;19.41;60.24;100033.09;4288156;33;20161;-96
2023/08/10 06:04:27;;;;;;;0.82;0.75;;;;;;;19.49;60.24;100037.88;4273983;33;20399;-96
2023/08/10 06:06:57;;;;;;;0.52;0.50;;;;;;;19.39;60.22;100040.25;4283140;33;20112;-96
2023/08/10 06:09:28;;;;;;;0.00;0.00;;;;;;;19.33;60.23;100035.38;4310533;33;20093;-96
2023/08/10 06:11:54;;;;;;;0.10;0.10;;;;;;;19.38;60.22;100043.00;4283817;33;20056;-96
2023/08/10 06:14:20;;;;;;;0.55;0.55;;;;;;;19.23;60.22;100043.03;4283131;33;20177;-96
2023/08/10 06:16:45;;;;;;;0.00;0.00;;;;;;;19.30;60.22;100039.06;4281535;33;20149;-96
2023/08/10 06:19:10;;;;;;;0.00;0.00;;;;;;;19.41;60.23;100033.09;4280257;33;20510;-96
2023/08/10 06:21:36;;;;;;;0.00;0.00;;;;;;;19.33;60.23;100038.00;4283067;33;20151;-95
2023/08/10 06:24:02;;;;;;;0.28;0.28;;;;;;;19.51;60.24;100038.62;4286212;33;20127;-95
2023/08/10 06:26:28;;;;;;;0.43;0.20;;;;;;;19.56;60.24;100044.50;4278557;33;20080;-96
2023/08/10 06:28:56;;;;;;;0.00;0.00;;;;;;;19.51;60.23;100047.41;4273911;33;20131;-96
2023/08/10 06:31:21;;;;;;;0.32;0.28;;;;;;;19.66;60.25;100048.25;4297512;33;20530;-96
2023/08/10 06:33:48;;;;;;;0.10;0.10;;;;;;;19.87;60.25;100041.56;4283757;33;20085;-96
2023/08/10 06:36:15;;;;;;;0.00;0.00;;;;;;;20.03;60.27;100041.38;4282330;33;20107;-96
2023/08/10 06:38:44;;;;;;;27.58;1.65;;;;;;;20.22;60.27;100041.00;4284426;33;20096;-96
2023/08/10 06:41:12;;;;;;;0.10;0.10;;;;;;;20.24;60.28;100045.25;4287031;33;20108;-96
2023/08/10 06:43:46;;;;;;;0.00;0.00;;;;;;;20.19;60.27;100054.44;4282789;33;20121;-96
2023/08/10 06:46:12;;;;;;;0.00;0.00;;;;;;;20.32;60.28;100059.72;4298517;33;20140;-96
2023/08/10 06:48:37;;;;;;;0.20;0.20;;;;;;;20.18;60.28;100061.53;4281850;33;20149;-96
2023/08/10 06:51:04;;;;;;;0.28;0.28;;;;;;;20.28;60.28;100069.66;4258204;33;20146;-96
2023/08/10 06:53:31;;;;;;;0.13;0.13;;;;;;;19.99;60.26;100070.75;4263502;33;20113;-96
2023/08/10 06:56:01;;;;;;;0.82;0.15;;;;;;;20.24;60.28;100069.03;4280932;33;20077;-96
2023/08/10 06:58:26;;;;;;;0.65;0.30;;;;;;;20.37;60.28;100066.44;4268654;33;20519;-96
2023/08/10 07:00:52;;;;;;;0.00;0.00;;;;;;;20.52;60.29;100078.63;4280004;33;20156;-96
2023/08/10 07:03:20;;;;;;;0.10;0.10;;;;;;;20.62;60.29;100072.72;4279056;33;20126;-96
2023/08/10 07:05:45;;;;;;;0.05;0.05;;;;;;;20.61;60.29;100073.69;4299093;33;20745;-95
2023/08/10 07:08:11;;;;;;;0.15;0.15;;;;;;;20.74;60.30;100074.50;4292395;33;20161;-95
2023/08/10 07:10:37;;;;;;;0.10;0.10;;;;;;;20.75;60.30;100077.06;4284888;33;20135;-95
2023/08/10 07:13:03;;;;;;;0.10;0.10;;;;;;;20.87;60.30;100074.53;4280187;33;20108;-96
2023/08/10 07:15:30;;;;;;;0.00;0.00;;;;;;;20.87;60.30;100074.53;4278579;33;20088;-95
2023/08/10 07:17:55;;;;;;;0.03;0.03;;;;;;;20.91;60.31;100076.84;4265323;33;20086;-95
2023/08/10 07:20:21;;;;;;;0.32;0.32;;;;;;;21.17;60.32;100084.75;4253520;33;20161;-96
2023/08/10 07:22:47;;;;;;;0.30;0.30;;;;;;;21.16;60.32;100083.91;4267245;33;20541;-95
2023/08/10 07:25:12;;;;;;;0.17;0.15;;;;;;;21.22;60.32;100086.12;4279785;33;20111;-96
2023/08/10 07:27:38;;;;;;;0.20;0.17;;;;;;;21.36;60.33;100080.75;4279241;33;23459;-96
2023/08/10 07:30:04;;;;;;;0.10;0.10;;;;;;;21.44;60.34;100081.03;4279706;33;20113;-96
2023/08/10 07:32:30;;;;;;;0.40;0.35;;;;;;;21.54;60.33;100088.34;4279372;33;20109;-96
2023/08/10 07:34:56;;;;;;;0.37;0.17;;;;;;;21.85;60.35;100085.13;4279495;33;20069;-96
2023/08/10 07:37:22;;;;;;;0.10;0.10;;;;;;;22.14;60.38;100087.47;4265177;33;20152;-96
2023/08/10 07:39:47;;;;;;;0.00;0.00;;;;;;;22.14;60.37;100084.81;4286061;33;20556;-96
2023/08/10 07:42:13;;;;;;;0.00;0.00;;;;;;;22.21;60.38;100075.44;4290127;33;20192;-96
2023/08/10 07:44:38;;;;;;;0.00;0.00;;;;;;;22.37;60.38;100075.97;4279901;33;20122;-96
2023/08/10 07:47:04;;;;;;;0.00;0.00;;;;;;;22.48;60.39;100077.84;4278959;33;20105;-96
2023/08/10 07:49:31;;;;;;;0.13;0.13;;;;;;;22.65;60.41;100078.22;4290671;33;20109;-96
2023/08/10 07:51:57;;;;;;;0.20;0.20;;;;;;;22.72;60.40;100077.75;4292549;33;20107;-95
2023/08/10 07:54:22;;;;;;;0.00;0.00;;;;;;;22.75;60.41;100080.19;4292009;33;20112;-95
2023/08/10 07:56:47;;;;;;;0.00;0.00;;;;;;;22.49;60.40;100080.38;4269696;33;20494;-93
2023/08/10 07:59:13;;;;;;;0.57;0.47;;;;;;;22.30;60.38;100080.91;4272964;33;20384;-96
2023/08/10 08:01:38;;;;;;;0.00;0.00;;;;;;;22.12;60.38;100086.72;4291539;33;20085;-95
2023/08/10 08:04:04;;;;;;;0.00;0.00;;;;;;;21.93;60.36;100084.56;4280058;33;20160;-94
2023/08/10 08:06:30;;;;;;;0.00;0.00;;;;;;;21.81;60.36;100091.63;4290705;33;20108;-96
2023/08/10 08:08:55;;;;;;;0.00;0.00;;;;;;;21.80;60.36;100087.28;4282084;33;20109;-94
2023/08/10 08:11:21;;;;;;;0.10;0.10;;;;;;;21.83;60.36;100096.81;4276337;33;20121;-92
2023/08/10 08:13:46;;;;;;;0.32;0.10;;;;;;;21.97;60.37;100083.38;4290331;33;20104;-94
2023/08/10 08:16:12;;;;;;;0.00;0.00;;;;;;;21.97;60.37;100097.47;4279596;33;20216;-94
2023/08/10 08:18:48;;;;;;;0.00;0.00;;;;;;;22.06;60.37;100098.66;4264383;33;20127;-95
2023/08/10 08:21:17;;;;;;;0.73;0.10;;;;;;;22.01;60.37;100095.47;4278748;33;20921;-93
2023/08/10 08:23:43;;;;;;;0.00;0.00;;;;;;;22.18;60.38;100089.75;4283608;33;20096;-94
2023/08/10 08:26:09;;;;;;;0.10;0.10;;;;;;;22.40;60.39;100098.78;4288455;33;20465;-94
2023/08/10 08:28:34;;;;;;;0.22;0.22;;;;;;;22.63;60.40;100097.87;4266679;33;20457;-95
2023/08/10 08:31:00;;;;;;;0.00;0.00;;;;;;;22.56;60.40;100101.97;4278323;33;20128;-94
2023/08/10 08:33:25;;;;;;;0.03;0.03;;;;;;;22.74;60.42;100092.59;4295555;33;20148;-92
2023/08/10 08:35:51;;;;;;;0.60;0.32;;;;;;;22.83;60.41;100101.69;4289162;33;20135;-92
2023/08/10 08:38:17;;;;;;;0.00;0.00;;;;;;;22.75;60.41;100107.56;4290010;33;20130;-94
2023/08/10 08:40:43;;;;;;;0.00;0.00;;;;;;;22.96;60.43;100105.94;4290036;33;20101;-95
2023/08/10 08:43:08;;;;;;;0.00;0.00;;;;;;;23.17;60.43;100110.50;4277626;33;20105;-93
2023/08/10 08:45:34;;;;;;;0.00;0.00;;;;;;;23.23;60.43;100110.88;4273299;33;20180;-95
2023/08/10 08:48:02;;;;;;;0.10;0.10;;;;;;;23.55;60.45;100099.50;4284833;33;20131;-96
2023/08/10 08:50:27;;;;;;;0.00;0.00;;;;;;;23.83;60.47;100100.81;4266970;33;20077;-94
2023/08/10 08:52:53;;;;;;;0.00;0.00;;;;;;;23.81;60.47;100100.94;4282868;33;20495;-92
2023/08/10 08:55:19;;;;;;;0.15;0.15;;;;;;;23.75;60.47;100100.59;4282681;33;20104;-93
2023/08/10 08:57:44;;;;;;;0.20;0.20;;;;;;;23.77;60.46;100096.84;4280372;33;20120;-92
2023/08/10 09:00:10;;;;;;;3.33;0.37;;;;;;;23.81;60.47;100103.59;4278117;33;20111;-94
2023/08/10 09:02:35;;;;;;;0.00;0.00;;;;;;;23.82;60.47;100105.28;4264033;33;20116;-94
2023/08/10 09:05:04;;;;;;;0.00;0.00;;;;;;;23.85;60.47;100104.19;4280531;33;20109;-93
2023/08/10 09:07:30;;;;;;;0.30;0.30;;;;;;;23.86;60.47;100106.72;4282280;33;20147;-95
2023/08/10 09:09:55;;;;;;;0.00;0.00;;;;;;;23.98;60.48;100096.91;4277872;33;20431;-96
2023/08/10 09:12:34;;;;;;;0.00;0.00;;;;;;;23.93;60.47;100107.06;4266171;33;20093;-94
2023/08/10 09:15:05;;;;;;;0.43;0.17;;;;;;;23.85;60.47;100109.50;4278161;33;20105;-96
2023/08/10 09:17:34;;;;;;;0.00;0.00;;;;;;;23.91;60.47;100109.00;4277951;33;20109;-93
2023/08/10 09:20:00;;;;;;;0.00;0.00;;;;;;;23.93;60.47;100108.88;4277727;33;20143;-95
2023/08/10 09:22:33;;;;;;;0.00;0.00;;;;;;;24.10;60.48;100114.50;4267927;33;20073;-95
2023/08/10 09:24:59;;;;;;;0.00;0.00;;;;;;;24.05;60.47;100106.06;4289513;33;20096;-94
2023/08/10 09:27:28;;;;;;;0.03;0.03;;;;;;;24.01;60.48;100114.41;4277835;33;20100;-93
2023/08/10 09:30:00;;;;;;;0.10;0.10;;;;;;;24.05;60.47;100110.53;4289550;33;20069;-94
2023/08/10 09:32:25;;;;;;;0.30;0.30;;;;;;;24.14;60.49;100109.78;4278905;33;20108;-96
2023/08/10 09:34:53;;;;;;;0.00;0.00;;;;;;;24.28;60.50;100101.53;4267426;33;20121;-95
2023/08/10 09:37:23;;;;;;;0.35;0.35;;;;;;;24.13;60.50;100106.28;4290913;33;20108;-94
2023/08/10 09:39:52;;;;;;;0.00;0.00;;;;;;;24.05;60.49;100110.53;4260389;33;20116;-94
2023/08/10 09:42:18;;;;;;;0.00;0.00;;;;;;;24.16;60.49;100114.00;4261256;33;20119;-93
2023/08/10 09:44:45;;;;;;;0.00;0.00;;;;;;;24.23;60.50;100109.00;4272884;33;20165;-91
2023/08/10 09:47:11;;;;;;;0.00;0.00;;;;;;;24.34;60.50;100106.31;4282327;33;20151;-94
2023/08/10 09:49:38;;;;;;;0.75;0.32;;;;;;;24.52;60.50;100105.75;4272324;33;20164;-94
2023/08/10 09:52:04;;;;;;;0.00;0.00;;;;;;;24.37;60.50;100110.53;4277167;33;20092;-95
2023/08/10 09:54:30;;;;;;;0.00;0.00;;;;;;;24.54;60.52;100109.13;4281828;33;20120;-96
2023/08/10 09:56:55;;;;;;;0.80;0.20;;;;;;;24.41;60.50;100106.69;4265651;33;20124;-95
2023/08/10 09:59:20;;;;;;;0.00;0.00;;;;;;;24.52;60.51;100109.25;4279499;33;20112;-94
2023/08/10 10:01:46;;;;;;;0.00;0.00;;;;;;;24.57;60.51;100099.06;4282289;33;20143;-93
2023/08/10 10:04:11;;;;;;;0.00;0.00;;;;;;;24.41;60.50;100104.84;4260570;33;20117;-93
2023/08/10 10:06:37;;;;;;;0.00;0.00;;;;;;;24.43;60.52;100100.25;4279512;33;20149;-94
2023/08/10 10:09:03;;;;;;;0.00;0.00;;;;;;;24.52;60.52;100103.94;4282136;33;20192;-94
2023/08/10 10:11:30;;;;;;;0.00;0.00;;;;;;;24.41;60.50;100107.50;4270666;33;20073;-92
2023/08/10 10:13:56;;;;;;;0.10;0.10;;;;;;;24.58;60.52;100097.25;4280080;33;20132;-93
2023/08/10 10:16:22;;;;;;;1.35;0.68;;;;;;;24.51;60.51;100096.09;4281474;33;20121;-94
2023/08/10 10:18:47;;;;;;;0.03;0.03;;;;;;;24.64;60.52;100096.75;4269495;33;20088;-96
2023/08/10 10:21:13;;;;;;;0.00;0.00;;;;;;;24.65;60.52;100096.62;4274881;33;20133;-92
2023/08/10 10:23:41;;;;;;;0.05;0.05;;;;;;;24.73;60.52;100101.28;4263063;33;20570;-93
2023/08/10 10:26:07;;;;;;;0.00;0.00;;;;;;;25.01;60.54;100094.44;4291231;33;20120;-95
2023/08/10 10:28:33;;;;;;;0.08;0.08;;;;;;;25.14;60.55;100092.41;4282063;33;20120;-95
2023/08/10 10:31:04;;;;;;;0.03;0.03;;;;;;;25.06;60.53;100086.91;4253493;33;20108;-91
2023/08/10 10:33:31;;;;;;;0.00;0.00;;;;;;;25.15;60.55;100082.59;4279671;33;20159;-91
2023/08/10 10:36:09;;;;;;;0.10;0.10;;;;;;;25.23;60.55;100086.28;4281972;33;20430;-93
2023/08/10 10:38:36;;;;;;;0.00;0.00;;;;;;;25.35;60.56;100081.72;4282911;33;20073;-94
2023/08/10 10:41:28;;;;;;;0.00;0.00;;;;;;;25.63;60.57;100074.75;4279995;33;20144;-94
2023/08/10 10:43:53;;;;;;;0.00;0.00;;;;;;;25.95;60.59;100080.72;4295996;33;20164;-94
2023/08/10 10:46:31;;;;;;;0.00;0.00;;;;;;;25.87;60.59;100077.06;4294181;33;20109;-95
2023/08/10 10:48:57;;;;;;;0.00;0.00;;;;;;;25.70;60.58;100081.25;4297171;33;20092;-90
2023/08/10 10:51:23;;;;;;;0.00;0.00;;;;;;;25.74;60.58;100077.31;4280386;33;20105;-94
2023/08/10 10:53:51;;;;;;;0.15;0.10;;;;;;;25.66;60.57;100071.81;4282208;33;20135;-93
2023/08/10 10:56:17;;;;;;;0.55;0.35;;;;;;;25.74;60.58;100068.47;4284242;33;20069;-95
2023/08/10 10:58:42;;;;;;;0.00;0.00;;;;;;;25.73;60.58;100067.63;4270039;33;20133;-92
2023/08/10 11:01:08;;;;;;;0.00;0.00;;;;;;;25.75;60.58;100062.16;4281775;33;20148;-95
2023/08/10 11:03:33;;;;;;;0.00;0.00;;;;;;;25.81;60.58;100062.47;4290457;33;20134;-94
2023/08/10 11:05:59;;;;;;;0.20;0.20;;;;;;;26.04;60.60;100067.53;4293881;33;20140;-94
2023/08/10 11:08:24;;;;;;;0.00;0.00;;;;;;;26.31;60.61;100075.69;4281700;33;20147;-94
2023/08/10 11:10:51;;;;;;;0.30;0.30;;;;;;;26.15;60.59;100068.22;4281857;33;20118;-96
2023/08/10 11:13:16;;;;;;;0.00;0.00;;;;;;;26.29;60.60;100065.16;4294062;33;20462;-94
2023/08/10 11:15:45;;;;;;;1.20;0.40;;;;;;;26.23;60.60;100070.19;4285511;33;20138;-94
2023/08/10 11:18:11;;;;;;;0.00;0.00;;;;;;;26.08;60.59;100061.78;4278185;33;20096;-94
2023/08/10 11:20:47;;;;;;;0.10;0.10;;;;;;;25.95;60.59;100056.72;4292879;33;20371;-94
2023/08/10 11:23:13;;;;;;;0.00;0.00;;;;;;;26.16;60.60;100066.41;4278131;33;20135;-93
2023/08/10 11:25:45;;;;;;;0.00;0.00;;;;;;;26.08;60.59;100056.44;4272758;33;20378;-95
2023/08/10 11:28:11;;;;;;;0.20;0.10;;;;;;;26.13;60.60;100072.03;4282431;33;20156;-93
2023/08/10 11:30:36;;;;;;;0.00;0.00;;;;;;;26.08;60.59;100061.78;4293208;33;20160;-94
2023/08/10 11:33:02;;;;;;;0.00;0.00;;;;;;;25.92;60.60;100059.66;4287661;33;20176;-94
2023/08/10 11:35:27;;;;;;;0.00;0.00;;;;;;;26.13;60.60;100061.34;4269268;33;20156;-94
2023/08/10 11:37:53;;;;;;;0.00;0.00;;;;;;;25.95;60.59;100059.38;4293741;33;20375;-92
2023/08/10 11:40:20;;;;;;;0.00;0.00;;;;;;;25.98;60.59;100058.25;4281217;33;20092;-93
2023/08/10 11:43:08;;;;;;;0.00;0.00;;;;;;;25.97;60.60;100056.56;4281521;33;20514;-93
2023/08/10 11:45:33;;;;;;;0.00;0.00;;;;;;;26.25;60.61;100049.53;4262460;33;20112;-93
2023/08/10 11:47:59;;;;;;;0.10;0.10;;;;;;;26.40;60.62;100055.31;4281197;33;20080;-94
2023/08/10 11:50:25;;;;;;;0.22;0.22;;;;;;;26.29;60.61;100053.63;4281355;33;20123;-94
2023/08/10 11:52:52;;;;;;;0.00;0.00;;;;;;;26.24;60.60;100058.53;4274086;33;20153;-94
2023/08/10 11:55:18;;;;;;;0.00;0.00;;;;;;;26.31;60.61;100057.00;4280419;33;20096;-94
2023/08/10 11:57:51;;;;;;;0.00;0.00;;;;;;;26.49;60.62;100054.44;4285870;33;20073;-94
2023/08/10 12:00:33;;;;;;;0.03;0.03;;;;;;;26.49;60.63;100046.44;4284562;33;20108;-93
2023/08/10 12:03:01;;;;;;;0.00;0.00;;;;;;;26.52;60.62;100041.69;4283265;33;20115;-95
2023/08/10 12:05:34;;;;;;;0.30;0.22;;;;;;;26.64;60.64;100042.34;4312328;33;20127;-95
2023/08/10 12:08:00;;;;;;;0.00;0.00;;;;;;;26.60;60.62;100049.81;4281546;33;20057;-93
2023/08/10 12:10:26;;;;;;;0.10;0.10;;;;;;;26.81;60.64;100035.41;4281393;33;20156;-94
2023/08/10 12:12:58;;;;;;;0.00;0.00;;;;;;;26.82;60.64;100039.75;4280520;33;20148;-95
2023/08/10 12:15:23;;;;;;;0.15;0.15;;;;;;;26.70;60.63;100049.75;4281139;33;20176;-95
2023/08/10 12:17:49;;;;;;;0.00;0.00;;;;;;;26.76;60.63;100032.34;4293097;33;20092;-96
2023/08/10 12:20:15;;;;;;;0.52;0.15;;;;;;;26.50;60.63;100040.13;4278855;33;20392;-96
2023/08/10 12:22:41;;;;;;;0.00;0.00;;;;;;;26.55;60.64;100028.03;4290670;33;20135;-95
2023/08/10 12:25:07;;;;;;;0.10;0.10;;;;;;;26.48;60.61;100028.75;4281992;33;20105;-95
2023/08/10 12:27:32;;;;;;;0.00;0.00;;;;;;;26.70;60.63;100022.22;4302782;33;20115;-95
2023/08/10 12:29:57;;;;;;;0.52;0.52;;;;;;;27.00;60.65;100027.34;4281233;33;20097;-95
2023/08/10 12:32:23;;;;;;;0.40;0.25;;;;;;;27.07;60.65;100017.75;4281135;33;20124;-94
2023/08/10 12:34:48;;;;;;;0.20;0.13;;;;;;;27.30;60.66;100017.34;4278519;33;20151;-94
2023/08/10 12:37:14;;;;;;;0.00;0.00;;;;;;;27.22;60.66;100015.44;4280092;33;20132;-94
2023/08/10 12:39:39;;;;;;;0.00;0.00;;;;;;;27.13;60.66;100018.97;4266946;33;20152;-94
2023/08/10 12:42:05;;;;;;;0.25;0.25;;;;;;;27.07;60.66;100023.09;4278748;33;20132;-95
2023/08/10 12:44:30;;;;;;;0.03;0.03;;;;;;;27.04;60.66;100026.06;4278533;33;20109;-94
2023/08/10 12:46:57;;;;;;;0.00;0.00;;;;;;;26.96;60.66;100011.72;4279398;33;20130;-94
2023/08/10 12:49:23;;;;;;;0.00;0.00;;;;;;;27.11;60.66;100010.28;4293343;33;20088;-93
2023/08/10 12:51:48;;;;;;;0.10;0.10;;;;;;;26.94;60.66;100017.22;4268834;33;20135;-94
2023/08/10 12:54:14;;;;;;;0.00;0.00;;;;;;;26.78;60.64;100025.03;4278369;33;20120;-96
2023/08/10 12:56:39;;;;;;;0.10;0.10;;;;;;;26.42;60.62;100022.16;4278467;33;20101;-95
2023/08/10 12:59:04;;;;;;;0.00;0.00;;;;;;;26.39;60.63;100013.59;4272953;33;20426;-96
2023/08/10 13:01:32;;;;;;;0.00;0.00;;;;;;;26.64;60.63;100014.81;4278656;33;20145;-93
2023/08/10 13:03:58;;;;;;;0.08;0.08;;;;;;;26.77;60.64;100010.81;4278952;33;20108;-95
2023/08/10 13:06:24;;;;;;;0.08;0.08;;;;;;;26.91;60.65;100010.34;4280817;33;20124;-95
2023/08/10 13:08:50;;;;;;;0.00;0.00;;;;;;;26.91;60.65;100014.84;4290881;33;20097;-94
2023/08/10 13:11:16;;;;;;;0.35;0.35;;;;;;;26.82;60.65;100016.56;4289562;33;20100;-94
2023/08/10 13:13:41;;;;;;;0.00;0.00;;;;;;;26.74;60.64;100012.97;4278259;33;20177;-96
2023/08/10 13:16:06;;;;;;;0.00;0.00;;;;;;;26.90;60.65;100013.16;4280231;33;20144;-95
2023/08/10 13:18:32;;;;;;;0.00;0.00;;;;;;;26.79;60.65;100024.03;4274698;33;20732;-93
2023/08/10 13:20:57;;;;;;;0.00;0.00;;;;;;;26.57;60.63;100015.38;4280004;33;20113;-94
2023/08/10 13:23:23;;;;;;;0.17;0.17;;;;;;;26.72;60.64;100009.56;4279884;33;20156;-93
2023/08/10 13:25:48;;;;;;;0.00;0.00;;;;;;;26.83;60.65;100001.38;4279889;33;20112;-94
2023/08/10 13:28:14;;;;;;;0.00;0.00;;;;;;;26.86;60.64;100015.28;4292069;33;20101;-93
2023/08/10 13:30:39;;;;;;;0.00;0.00;;;;;;;26.79;60.65;100024.03;4278643;33;20113;-94
2023/08/10 13:33:04;;;;;;;0.00;0.00;;;;;;;26.99;60.65;99998.97;4292044;33;20092;-94
2023/08/10 13:35:30;;;;;;;0.00;0.00;;;;;;;26.91;60.65;100007.66;4294417;33;20213;-94
2023/08/10 13:37:55;;;;;;;0.10;0.10;;;;;;;26.73;60.64;100003.22;4294266;33;20114;-93
2023/08/10 13:40:21;;;;;;;0.20;0.20;;;;;;;26.92;60.65;99997.81;4293879;33;20460;-94
2023/08/10 13:42:46;;;;;;;0.00;0.00;;;;;;;26.87;60.65;99997.41;4294454;33;20505;-95
2023/08/10 13:45:12;;;;;;;0.00;0.00;;;;;;;26.82;60.64;99999.69;4306065;33;20087;-94
2023/08/10 13:47:38;;;;;;;0.00;0.00;;;;;;;26.73;60.64;100011.25;4289420;33;20374;-95
2023/08/10 13:50:06;;;;;;;0.30;0.30;;;;;;;26.69;60.64;99996.50;4282585;33;20156;-95
2023/08/10 13:52:31;;;;;;;0.00;0.00;;;;;;;26.66;60.64;100000.31;4271294;33;20172;-94
2023/08/10 13:54:58;;;;;;;0.15;0.15;;;;;;;26.41;60.63;100006.28;4272022;33;20136;-96
2023/08/10 13:57:23;;;;;;;0.10;0.10;;;;;;;26.28;60.61;100012.75;4306998;33;20100;-93
2023/08/10 13:59:49;;;;;;;0.00;0.00;;;;;;;26.35;60.62;100007.72;4293754;33;20102;-96
2023/08/10 14:02:15;;;;;;;0.05;0.05;;;;;;;26.28;60.62;100007.41;4293952;33;20108;-93
2023/08/10 14:04:40;;;;;;;0.00;0.00;;;;;;;26.40;60.63;100008.12;4284093;33;20107;-94
2023/08/10 14:07:06;;;;;;;0.00;0.00;;;;;;;26.30;60.62;100009.94;4280001;33;20175;-96
2023/08/10 14:09:31;;;;;;;0.00;0.00;;;;;;;26.46;60.62;100009.34;4273947;33;20196;-95
2023/08/10 14:11:57;;;;;;;0.00;0.00;;;;;;;26.46;60.62;100012.03;4301110;33;20385;-95
2023/08/10 14:14:22;;;;;;;0.00;0.00;;;;;;;26.39;60.64;100003.75;4291792;33;20080;-93
2023/08/10 14:16:48;;;;;;;0.00;0.00;;;;;;;26.46;60.62;100009.34;4282354;33;20152;-96
2023/08/10 14:19:16;;;;;;;0.00;0.00;;;;;;;26.53;60.63;100007.81;4267903;33;20135;-93
2023/08/10 14:21:42;;;;;;;0.00;0.00;;;;;;;26.29;60.62;100002.94;4256602;33;20105;-94
2023/08/10 14:24:07;;;;;;;0.00;0.00;;;;;;;26.13;60.61;100008.84;4291928;33;20083;-93
2023/08/10 14:26:33;;;;;;;0.50;0.32;;;;;;;26.22;60.61;100012.47;4301326;33;20138;-92
2023/08/10 14:28:58;;;;;;;0.30;0.30;;;;;;;26.25;60.62;100015.69;4281961;33;20144;-93
2023/08/10 14:31:24;;;;;;;0.00;0.00;;;;;;;26.29;60.62;100013.59;4291859;33;20136;-94
2023/08/10 14:33:49;;;;;;;0.98;0.30;;;;;;;26.39;60.63;100021.59;4281922;33;20152;-94
2023/08/10 14:36:15;;;;;;;0.00;0.00;;;;;;;26.45;60.63;100013.84;4289738;33;20152;-95
2023/08/10 14:38:40;;;;;;;0.00;0.00;;;;;;;26.53;60.63;100010.50;4293520;33;20185;-94
2023/08/10 14:41:06;;;;;;;0.00;0.00;;;;;;;26.41;60.63;100009.81;4293949;33;20135;-94
2023/08/10 14:43:31;;;;;;;0.00;0.00;;;;;;;26.22;60.61;100005.31;4293465;33;20178;-94
2023/08/10 14:45:57;;;;;;;0.03;0.03;;;;;;;26.19;60.62;100007.41;4281814;33;20101;-96
2023/08/10 14:48:22;;;;;;;3.95;1.58;;;;;;;26.28;60.62;100004.75;4272802;33;20128;-95
2023/08/10 14:50:48;;;;;;;0.10;0.10;;;;;;;26.44;60.63;100009.50;4276660;33;20120;-95
2023/08/10 14:53:14;;;;;;;0.00;0.00;;;;;;;26.55;60.64;100012.03;4296617;33;20068;-94
2023/08/10 14:55:39;;;;;;;0.00;0.00;;;;;;;26.41;60.63;100011.62;4287264;33;20201;-94
2023/08/10 14:58:04;;;;;;;0.00;0.00;;;;;;;26.26;60.62;100013.84;4281899;33;20151;-94
2023/08/10 15:00:33;;;;;;;0.00;0.00;;;;;;;26.43;60.63;100015.84;4277577;33;20470;-94